sensor_id;sensor_type;location;lat;lon;timestamp;pressure;altitude;pressure_sealevel;temperature;humidity
13367;BME280;6752;52.612;13.630;2022-08-03T00:02:52;100982.09;;;18.92;77.02
13367;BME280;6752;52.612;13.630;2022-08-03T00:07:55;100977.67;;;18.91;75.92
13367;BME280;6752;52.612;13.630;2022-08-03T00:12:57;100979.05;;;18.89;77.68
13367;BME280;6752;52.612;13.630;2022-08-03T00:18:00;100969.34;;;18.81;77.60
13367;BME280;6752;52.612;13.630;2022-08-03T00:23:03;100978.59;;;18.78;77.42
13367;BME280;6752;52.612;13.630;2022-08-03T00:28:05;100970.47;;;18.85;76.15
13367;BME280;6752;52.612;13.630;2022-08-03T00:33:07;100970.88;;;18.85;77.79
13367;BME280;6752;52.612;13.630;2022-08-03T00:38:17;100969.09;;;18.88;81.68
13367;BME280;6752;52.612;13.630;2022-08-03T00:43:23;100959.58;;;18.92;81.35
13367;BME280;6752;52.612;13.630;2022-08-03T00:48:23;100955.08;;;18.99;78.41
13367;BME280;6752;52.612;13.630;2022-08-03T00:53:25;100950.41;;;19.13;78.61
13367;BME280;6752;52.612;13.630;2022-08-03T00:58:28;100953.05;;;19.16;78.17
13367;BME280;6752;52.612;13.630;2022-08-03T01:03:33;100941.20;;;19.18;76.85
13367;BME280;6752;52.612;13.630;2022-08-03T01:08:51;100951.52;;;19.09;81.69
13367;BME280;6752;52.612;13.630;2022-08-03T01:14:08;100952.34;;;19.07;82.68
13367;BME280;6752;52.612;13.630;2022-08-03T01:24:31;100931.21;;;19.12;80.16
13367;BME280;6752;52.612;13.630;2022-08-03T01:35:00;100935.62;;;19.05;86.14
13367;BME280;6752;52.612;13.630;2022-08-03T01:40:00;100929.81;;;19.02;90.15
13367;BME280;6752;52.612;13.630;2022-08-03T01:45:05;100923.06;;;19.14;86.90
13367;BME280;6752;52.612;13.630;2022-08-03T01:50:14;100926.15;;;19.22;87.02
13367;BME280;6752;52.612;13.630;2022-08-03T01:55:17;100925.73;;;19.25;84.67
13367;BME280;6752;52.612;13.630;2022-08-03T02:00:20;100926.94;;;19.15;84.89
13367;BME280;6752;52.612;13.630;2022-08-03T02:05:22;100923.11;;;19.26;80.19
13367;BME280;6752;52.612;13.630;2022-08-03T02:10:26;100923.52;;;19.22;80.17
13367;BME280;6752;52.612;13.630;2022-08-03T02:15:28;100929.05;;;19.27;81.19
13367;BME280;6752;52.612;13.630;2022-08-03T02:20:31;100920.49;;;19.31;79.33
13367;BME280;6752;52.612;13.630;2022-08-03T02:25:34;100921.73;;;19.31;79.98
13367;BME280;6752;52.612;13.630;2022-08-03T02:30:39;100916.08;;;19.35;79.64
13367;BME280;6752;52.612;13.630;2022-08-03T02:35:41;100923.40;;;19.35;80.42
13367;BME280;6752;52.612;13.630;2022-08-03T02:40:48;100920.36;;;19.37;79.39
13367;BME280;6752;52.612;13.630;2022-08-03T02:45:50;100920.67;;;19.40;79.77
13367;BME280;6752;52.612;13.630;2022-08-03T02:50:52;100921.74;;;19.39;81.94
13367;BME280;6752;52.612;13.630;2022-08-03T02:55:54;100930.06;;;19.42;82.11
13367;BME280;6752;52.612;13.630;2022-08-03T03:00:58;100928.79;;;19.38;82.98
13367;BME280;6752;52.612;13.630;2022-08-03T03:06:01;100926.02;;;19.36;82.30
13367;BME280;6752;52.612;13.630;2022-08-03T03:11:03;100929.06;;;19.37;79.90
13367;BME280;6752;52.612;13.630;2022-08-03T03:16:05;100923.43;;;19.40;78.46
13367;BME280;6752;52.612;13.630;2022-08-03T03:21:08;100924.08;;;19.31;78.07
13367;BME280;6752;52.612;13.630;2022-08-03T03:26:10;100928.91;;;19.20;86.35
13367;BME280;6752;52.612;13.630;2022-08-03T03:31:12;100927.91;;;19.15;88.62
13367;BME280;6752;52.612;13.630;2022-08-03T03:36:15;100931.55;;;19.31;84.73
13367;BME280;6752;52.612;13.630;2022-08-03T03:41:19;100925.88;;;19.31;89.13
13367;BME280;6752;52.612;13.630;2022-08-03T03:46:22;100924.64;;;19.33;86.93
13367;BME280;6752;52.612;13.630;2022-08-03T03:51:26;100926.02;;;19.33;85.20
13367;BME280;6752;52.612;13.630;2022-08-03T03:56:30;100926.58;;;19.35;85.56
13367;BME280;6752;52.612;13.630;2022-08-03T04:01:35;100923.27;;;19.36;82.35
13367;BME280;6752;52.612;13.630;2022-08-03T04:06:38;100914.83;;;19.37;81.75
13367;BME280;6752;52.612;13.630;2022-08-03T04:17:00;100924.95;;;19.44;85.82
13367;BME280;6752;52.612;13.630;2022-08-03T04:22:08;100927.72;;;19.44;85.11
13367;BME280;6752;52.612;13.630;2022-08-03T04:27:15;100936.02;;;19.52;84.60
13367;BME280;6752;52.612;13.630;2022-08-03T04:32:17;100933.03;;;19.64;84.15
13367;BME280;6752;52.612;13.630;2022-08-03T04:37:34;100935.94;;;19.76;84.32
13367;BME280;6752;52.612;13.630;2022-08-03T04:42:35;100942.17;;;19.97;84.23
13367;BME280;6752;52.612;13.630;2022-08-03T04:47:37;100942.14;;;20.38;81.88
13367;BME280;6752;52.612;13.630;2022-08-03T04:52:40;100943.47;;;20.68;75.64
13367;BME280;6752;52.612;13.630;2022-08-03T04:57:46;100939.84;;;21.05;72.97
13367;BME280;6752;52.612;13.630;2022-08-03T05:02:45;100934.05;;;21.37;72.34
13367;BME280;6752;52.612;13.630;2022-08-03T05:07:47;100943.21;;;21.74;71.20
13367;BME280;6752;52.612;13.630;2022-08-03T05:12:50;100937.99;;;21.87;70.23
13367;BME280;6752;52.612;13.630;2022-08-03T05:17:52;100945.75;;;22.21;67.53
13367;BME280;6752;52.612;13.630;2022-08-03T05:22:54;100940.95;;;22.58;67.06
13367;BME280;6752;52.612;13.630;2022-08-03T05:27:57;100943.88;;;22.58;66.51
13367;BME280;6752;52.612;13.630;2022-08-03T05:33:02;100935.55;;;22.93;64.63
13367;BME280;6752;52.612;13.630;2022-08-03T05:38:04;100943.82;;;23.51;65.52
13367;BME280;6752;52.612;13.630;2022-08-03T05:43:10;100944.55;;;24.10;63.08
13367;BME280;6752;52.612;13.630;2022-08-03T05:48:13;100947.00;;;24.54;61.84
13367;BME280;6752;52.612;13.630;2022-08-03T05:53:15;100953.81;;;24.47;58.91
13367;BME280;6752;52.612;13.630;2022-08-03T05:58:19;100945.95;;;24.86;57.10
13367;BME280;6752;52.612;13.630;2022-08-03T06:03:21;100934.64;;;25.76;57.72
13367;BME280;6752;52.612;13.630;2022-08-03T06:08:24;100942.09;;;25.80;57.00
13367;BME280;6752;52.612;13.630;2022-08-03T06:13:27;100937.16;;;26.57;55.00
13367;BME280;6752;52.612;13.630;2022-08-03T06:18:30;100933.81;;;26.82;54.03
13367;BME280;6752;52.612;13.630;2022-08-03T06:23:32;100934.03;;;27.27;55.39
13367;BME280;6752;52.612;13.630;2022-08-03T06:28:37;100932.58;;;27.55;54.34
13367;BME280;6752;52.612;13.630;2022-08-03T06:33:40;100933.97;;;28.07;52.31
13367;BME280;6752;52.612;13.630;2022-08-03T06:38:42;100929.34;;;28.52;51.30
13367;BME280;6752;52.612;13.630;2022-08-03T06:43:45;100932.88;;;28.19;50.34
13367;BME280;6752;52.612;13.630;2022-08-03T06:48:47;100926.72;;;29.54;48.70
13367;BME280;6752;52.612;13.630;2022-08-03T06:53:49;100927.23;;;29.52;49.45
13367;BME280;6752;52.612;13.630;2022-08-03T06:58:52;100921.94;;;30.25;47.27
13367;BME280;6752;52.612;13.630;2022-08-03T07:03:55;100928.19;;;29.87;46.79
13367;BME280;6752;52.612;13.630;2022-08-03T07:08:57;100916.23;;;30.11;46.12
13367;BME280;6752;52.612;13.630;2022-08-03T07:13:59;100921.36;;;31.60;47.51
13367;BME280;6752;52.612;13.630;2022-08-03T07:19:02;100914.59;;;30.62;44.29
13367;BME280;6752;52.612;13.630;2022-08-03T07:24:04;100916.05;;;30.76;43.73
13367;BME280;6752;52.612;13.630;2022-08-03T07:29:07;100910.44;;;31.93;43.04
13367;BME280;6752;52.612;13.630;2022-08-03T07:34:09;100913.92;;;31.15;43.54
13367;BME280;6752;52.612;13.630;2022-08-03T07:39:12;100920.25;;;31.97;45.21
13367;BME280;6752;52.612;13.630;2022-08-03T07:44:14;100914.70;;;31.66;45.46
13367;BME280;6752;52.612;13.630;2022-08-03T07:49:17;100917.77;;;33.18;42.56
13367;BME280;6752;52.612;13.630;2022-08-03T07:54:19;100918.66;;;32.57;44.37
13367;BME280;6752;52.612;13.630;2022-08-03T07:59:22;100913.89;;;33.42;42.16
13367;BME280;6752;52.612;13.630;2022-08-03T08:04:24;100917.47;;;33.68;43.56
13367;BME280;6752;52.612;13.630;2022-08-03T08:09:26;100904.25;;;32.92;41.16
13367;BME280;6752;52.612;13.630;2022-08-03T08:14:29;100911.09;;;32.30;41.69
13367;BME280;6752;52.612;13.630;2022-08-03T08:19:40;100903.41;;;32.99;41.01
13367;BME280;6752;52.612;13.630;2022-08-03T08:24:43;100907.06;;;35.02;41.30
13367;BME280;6752;52.612;13.630;2022-08-03T08:29:45;100910.17;;;33.47;40.43
13367;BME280;6752;52.612;13.630;2022-08-03T08:34:47;100905.79;;;33.40;38.06
13367;BME280;6752;52.612;13.630;2022-08-03T08:39:50;100900.03;;;35.05;39.83
13367;BME280;6752;52.612;13.630;2022-08-03T08:44:52;100898.25;;;35.50;37.27
13367;BME280;6752;52.612;13.630;2022-08-03T08:49:54;100897.44;;;34.72;39.03
13367;BME280;6752;52.612;13.630;2022-08-03T08:54:58;100902.69;;;36.18;38.32
13367;BME280;6752;52.612;13.630;2022-08-03T09:00:00;100902.05;;;34.25;37.44
13367;BME280;6752;52.612;13.630;2022-08-03T09:05:02;100894.71;;;36.48;36.64
13367;BME280;6752;52.612;13.630;2022-08-03T09:10:06;100891.37;;;35.25;36.96
13367;BME280;6752;52.612;13.630;2022-08-03T09:15:27;100898.97;;;37.68;37.19
13367;BME280;6752;52.612;13.630;2022-08-03T09:20:30;100890.83;;;35.27;35.83
13367;BME280;6752;52.612;13.630;2022-08-03T09:25:35;100884.38;;;36.49;36.78
13367;BME280;6752;52.612;13.630;2022-08-03T09:30:56;100879.66;;;37.64;35.89
13367;BME280;6752;52.612;13.630;2022-08-03T09:35:48;100873.58;;;36.03;36.36
13367;BME280;6752;52.612;13.630;2022-08-03T09:40:50;100869.81;;;35.77;35.47
13367;BME280;6752;52.612;13.630;2022-08-03T09:46:01;100869.18;;;35.74;36.31
13367;BME280;6752;52.612;13.630;2022-08-03T09:50:59;100873.98;;;36.92;37.28
13367;BME280;6752;52.612;13.630;2022-08-03T09:56:00;100877.50;;;37.85;35.16
13367;BME280;6752;52.612;13.630;2022-08-03T10:01:03;100873.17;;;37.67;35.05
13367;BME280;6752;52.612;13.630;2022-08-03T10:06:15;100867.95;;;37.38;36.30
13367;BME280;6752;52.612;13.630;2022-08-03T10:11:29;100855.22;;;35.93;34.59
13367;BME280;6752;52.612;13.630;2022-08-03T10:16:34;100849.14;;;38.28;35.12
13367;BME280;6752;52.612;13.630;2022-08-03T10:21:40;100853.87;;;36.67;34.68
13367;BME280;6752;52.612;13.630;2022-08-03T10:26:42;100847.45;;;37.88;33.97
13367;BME280;6752;52.612;13.630;2022-08-03T10:31:46;100843.45;;;38.74;35.07
13367;BME280;6752;52.612;13.630;2022-08-03T10:36:49;100835.64;;;39.17;32.88
13367;BME280;6752;52.612;13.630;2022-08-03T10:41:55;100838.94;;;36.75;34.70
13367;BME280;6752;52.612;13.630;2022-08-03T10:46:57;100821.69;;;39.84;33.69
13367;BME280;6752;52.612;13.630;2022-08-03T10:52:03;100822.23;;;38.98;33.09
13367;BME280;6752;52.612;13.630;2022-08-03T10:57:06;100832.27;;;38.70;36.16
13367;BME280;6752;52.612;13.630;2022-08-03T11:03:00;100822.20;;;39.16;33.19
13367;BME280;6752;52.612;13.630;2022-08-03T11:07:29;100816.41;;;40.83;33.30
13367;BME280;6752;52.612;13.630;2022-08-03T11:12:32;100803.73;;;38.95;33.07
13367;BME280;6752;52.612;13.630;2022-08-03T11:17:34;100810.68;;;37.98;33.54
13367;BME280;6752;52.612;13.630;2022-08-03T11:22:48;100804.19;;;38.71;33.27
13367;BME280;6752;52.612;13.630;2022-08-03T11:28:02;100796.47;;;38.69;32.66
13367;BME280;6752;52.612;13.630;2022-08-03T11:32:57;100796.56;;;39.14;33.83
13367;BME280;6752;52.612;13.630;2022-08-03T11:43:02;100802.77;;;38.70;33.30
13367;BME280;6752;52.612;13.630;2022-08-03T11:48:14;100792.30;;;40.17;32.65
13367;BME280;6752;52.612;13.630;2022-08-03T11:53:17;100799.14;;;41.58;33.25
13367;BME280;6752;52.612;13.630;2022-08-03T11:58:20;100785.43;;;40.11;32.57
13367;BME280;6752;52.612;13.630;2022-08-03T12:03:30;100787.19;;;39.16;32.63
13367;BME280;6752;52.612;13.630;2022-08-03T12:08:33;100790.80;;;39.69;33.69
13367;BME280;6752;52.612;13.630;2022-08-03T12:13:44;100789.72;;;39.41;33.60
13367;BME280;6752;52.612;13.630;2022-08-03T12:18:58;100787.54;;;38.63;34.00
13367;BME280;6752;52.612;13.630;2022-08-03T12:24:12;100784.51;;;38.34;33.79
13367;BME280;6752;52.612;13.630;2022-08-03T12:29:20;100777.73;;;39.77;34.54
13367;BME280;6752;52.612;13.630;2022-08-03T12:34:22;100778.58;;;39.31;33.84
13367;BME280;6752;52.612;13.630;2022-08-03T12:39:28;100781.81;;;37.99;34.39
13367;BME280;6752;52.612;13.630;2022-08-03T12:44:31;100748.42;;;40.21;31.71
13367;BME280;6752;52.612;13.630;2022-08-03T12:49:46;100744.83;;;37.99;32.47
13367;BME280;6752;52.612;13.630;2022-08-03T12:54:54;100746.42;;;37.10;33.75
13367;BME280;6752;52.612;13.630;2022-08-03T12:59:58;100742.99;;;37.74;33.54
13367;BME280;6752;52.612;13.630;2022-08-03T13:05:00;100735.60;;;37.41;33.11
13367;BME280;6752;52.612;13.630;2022-08-03T13:10:05;100749.31;;;38.37;33.96
13367;BME280;6752;52.612;13.630;2022-08-03T13:15:07;100742.95;;;38.70;34.70
13367;BME280;6752;52.612;13.630;2022-08-03T13:20:10;100741.20;;;37.19;34.62
13367;BME280;6752;52.612;13.630;2022-08-03T13:25:15;100748.80;;;37.39;34.07
13367;BME280;6752;52.612;13.630;2022-08-03T13:30:23;100750.82;;;36.63;34.49
13367;BME280;6752;52.612;13.630;2022-08-03T13:35:26;100742.27;;;36.88;34.15
13367;BME280;6752;52.612;13.630;2022-08-03T13:40:28;100737.52;;;37.96;34.43
13367;BME280;6752;52.612;13.630;2022-08-03T13:45:30;100732.06;;;38.98;33.31
13367;BME280;6752;52.612;13.630;2022-08-03T13:50:33;100726.75;;;37.92;34.75
13367;BME280;6752;52.612;13.630;2022-08-03T13:55:35;100720.64;;;38.04;34.74
13367;BME280;6752;52.612;13.630;2022-08-03T14:00:38;100723.30;;;37.93;34.50
13367;BME280;6752;52.612;13.630;2022-08-03T14:05:43;100721.78;;;36.91;35.25
13367;BME280;6752;52.612;13.630;2022-08-03T14:10:43;100718.70;;;37.29;34.59
13367;BME280;6752;52.612;13.630;2022-08-03T14:15:48;100714.75;;;37.80;34.73
13367;BME280;6752;52.612;13.630;2022-08-03T14:20:50;100705.72;;;36.80;34.58
13367;BME280;6752;52.612;13.630;2022-08-03T14:25:53;100697.28;;;36.01;34.82
13367;BME280;6752;52.612;13.630;2022-08-03T14:30:55;100702.23;;;35.89;35.33
13367;BME280;6752;52.612;13.630;2022-08-03T14:35:57;100704.45;;;36.41;35.58
13367;BME280;6752;52.612;13.630;2022-08-03T14:41:00;100703.60;;;36.07;36.58
13367;BME280;6752;52.612;13.630;2022-08-03T14:46:02;100700.19;;;35.10;36.14
13367;BME280;6752;52.612;13.630;2022-08-03T14:51:04;100700.52;;;34.75;36.48
13367;BME280;6752;52.612;13.630;2022-08-03T14:56:14;100698.59;;;35.90;36.82
13367;BME280;6752;52.612;13.630;2022-08-03T15:01:34;100693.52;;;36.15;36.35
13367;BME280;6752;52.612;13.630;2022-08-03T15:06:40;100692.15;;;35.95;38.10
13367;BME280;6752;52.612;13.630;2022-08-03T15:11:46;100688.59;;;36.31;36.51
13367;BME280;6752;52.612;13.630;2022-08-03T15:16:48;100686.73;;;36.60;37.36
13367;BME280;6752;52.612;13.630;2022-08-03T15:21:50;100684.27;;;36.53;36.82
13367;BME280;6752;52.612;13.630;2022-08-03T15:26:53;100666.24;;;35.50;36.27
13367;BME280;6752;52.612;13.630;2022-08-03T15:31:56;100671.05;;;35.48;37.61
13367;BME280;6752;52.612;13.630;2022-08-03T15:36:59;100674.69;;;35.47;38.69
13367;BME280;6752;52.612;13.630;2022-08-03T15:42:03;100661.52;;;34.78;36.82
13367;BME280;6752;52.612;13.630;2022-08-03T15:47:06;100663.52;;;34.59;37.50
13367;BME280;6752;52.612;13.630;2022-08-03T15:52:12;100660.90;;;34.90;36.90
13367;BME280;6752;52.612;13.630;2022-08-03T15:57:18;100667.63;;;35.73;37.56
13367;BME280;6752;52.612;13.630;2022-08-03T16:02:20;100656.88;;;35.28;37.15
13367;BME280;6752;52.612;13.630;2022-08-03T16:07:22;100663.95;;;36.20;38.73
13367;BME280;6752;52.612;13.630;2022-08-03T16:12:43;100651.07;;;35.15;36.92
13367;BME280;6752;52.612;13.630;2022-08-03T16:17:45;100653.19;;;35.42;37.93
13367;BME280;6752;52.612;13.630;2022-08-03T16:22:47;100644.34;;;35.10;37.33
13367;BME280;6752;52.612;13.630;2022-08-03T16:27:50;100647.07;;;34.70;39.17
13367;BME280;6752;52.612;13.630;2022-08-03T16:32:52;100654.90;;;35.13;40.91
13367;BME280;6752;52.612;13.630;2022-08-03T16:37:55;100659.15;;;34.97;41.74
13367;BME280;6752;52.612;13.630;2022-08-03T16:43:00;100650.31;;;34.70;39.70
13367;BME280;6752;52.612;13.630;2022-08-03T16:48:02;100640.05;;;34.56;39.52
13367;BME280;6752;52.612;13.630;2022-08-03T16:53:08;100637.94;;;34.23;39.69
13367;BME280;6752;52.612;13.630;2022-08-03T16:58:10;100636.95;;;33.74;38.13
13367;BME280;6752;52.612;13.630;2022-08-03T17:03:15;100638.61;;;33.64;39.13
13367;BME280;6752;52.612;13.630;2022-08-03T17:08:23;100647.11;;;33.54;38.60
13367;BME280;6752;52.612;13.630;2022-08-03T17:13:28;100645.73;;;33.67;38.55
13367;BME280;6752;52.612;13.630;2022-08-03T17:18:34;100643.61;;;33.74;38.67
13367;BME280;6752;52.612;13.630;2022-08-03T17:23:41;100650.25;;;33.28;38.82
13367;BME280;6752;52.612;13.630;2022-08-03T17:28:45;100654.86;;;33.05;39.50
13367;BME280;6752;52.612;13.630;2022-08-03T17:33:49;100657.98;;;33.00;41.14
13367;BME280;6752;52.612;13.630;2022-08-03T17:38:51;100664.61;;;32.52;41.29
13367;BME280;6752;52.612;13.630;2022-08-03T17:43:56;100671.18;;;32.58;41.68
13367;BME280;6752;52.612;13.630;2022-08-03T17:48:59;100672.69;;;32.71;42.37
13367;BME280;6752;52.612;13.630;2022-08-03T17:54:24;100677.23;;;32.40;41.83
13367;BME280;6752;52.612;13.630;2022-08-03T17:59:28;100671.96;;;32.47;41.15
13367;BME280;6752;52.612;13.630;2022-08-03T18:04:41;100668.47;;;32.18;41.62
13367;BME280;6752;52.612;13.630;2022-08-03T18:09:42;100679.95;;;32.02;42.30
13367;BME280;6752;52.612;13.630;2022-08-03T18:14:43;100676.13;;;31.86;42.41
13367;BME280;6752;52.612;13.630;2022-08-03T18:19:47;100676.84;;;31.59;42.50
13367;BME280;6752;52.612;13.630;2022-08-03T18:24:50;100675.98;;;31.49;42.63
13367;BME280;6752;52.612;13.630;2022-08-03T18:29:55;100681.88;;;31.16;45.16
13367;BME280;6752;52.612;13.630;2022-08-03T18:34:58;100690.91;;;31.08;48.61
13367;BME280;6752;52.612;13.630;2022-08-03T18:40:03;100693.92;;;30.87;48.91
13367;BME280;6752;52.612;13.630;2022-08-03T18:45:08;100702.44;;;30.62;50.50
13367;BME280;6752;52.612;13.630;2022-08-03T18:55:38;100707.19;;;29.99;51.54
13367;BME280;6752;52.612;13.630;2022-08-03T19:00:40;100709.08;;;29.89;51.67
13367;BME280;6752;52.612;13.630;2022-08-03T19:05:49;100711.86;;;29.71;52.63
13367;BME280;6752;52.612;13.630;2022-08-03T19:10:53;100709.78;;;29.35;53.40
13367;BME280;6752;52.612;13.630;2022-08-03T19:15:55;100709.08;;;29.21;53.29
13367;BME280;6752;52.612;13.630;2022-08-03T19:20:57;100707.41;;;28.98;54.04
13367;BME280;6752;52.612;13.630;2022-08-03T19:25:59;100711.63;;;28.83;53.55
13367;BME280;6752;52.612;13.630;2022-08-03T19:31:01;100720.98;;;28.71;52.95
13367;BME280;6752;52.612;13.630;2022-08-03T19:36:03;100720.42;;;28.46;54.04
13367;BME280;6752;52.612;13.630;2022-08-03T19:41:09;100720.62;;;28.36;54.12
13367;BME280;6752;52.612;13.630;2022-08-03T19:46:11;100723.92;;;28.05;54.47
13367;BME280;6752;52.612;13.630;2022-08-03T19:51:13;100730.55;;;27.77;55.16
13367;BME280;6752;52.612;13.630;2022-08-03T19:56:17;100728.45;;;27.56;55.32
13367;BME280;6752;52.612;13.630;2022-08-03T20:01:18;100720.59;;;27.45;54.84
13367;BME280;6752;52.612;13.630;2022-08-03T20:06:21;100727.84;;;27.33;55.63
13367;BME280;6752;52.612;13.630;2022-08-03T20:11:26;100722.02;;;27.15;56.94
13367;BME280;6752;52.612;13.630;2022-08-03T20:16:28;100720.55;;;26.79;57.72
13367;BME280;6752;52.612;13.630;2022-08-03T20:21:31;100707.23;;;26.76;57.33
13367;BME280;6752;52.612;13.630;2022-08-03T20:26:33;100711.06;;;26.64;58.10
13367;BME280;6752;52.612;13.630;2022-08-03T20:31:35;100714.03;;;26.55;58.33
13367;BME280;6752;52.612;13.630;2022-08-03T20:36:38;100717.70;;;26.40;58.33
13367;BME280;6752;52.612;13.630;2022-08-03T20:41:46;100715.65;;;26.23;58.06
13367;BME280;6752;52.612;13.630;2022-08-03T20:46:48;100714.49;;;25.91;58.00
13367;BME280;6752;52.612;13.630;2022-08-03T20:51:51;100718.67;;;25.72;58.38
13367;BME280;6752;52.612;13.630;2022-08-03T20:56:53;100723.69;;;25.72;58.88
13367;BME280;6752;52.612;13.630;2022-08-03T21:01:55;100727.97;;;25.51;60.50
13367;BME280;6752;52.612;13.630;2022-08-03T21:07:02;100733.01;;;25.30;61.72
13367;BME280;6752;52.612;13.630;2022-08-03T21:12:00;100728.48;;;25.27;61.39
13367;BME280;6752;52.612;13.630;2022-08-03T21:17:06;100727.11;;;25.16;61.01
13367;BME280;6752;52.612;13.630;2022-08-03T21:22:05;100736.29;;;24.80;63.61
13367;BME280;6752;52.612;13.630;2022-08-03T21:27:07;100734.48;;;24.69;62.87
13367;BME280;6752;52.612;13.630;2022-08-03T21:32:15;100730.48;;;24.61;62.54
13367;BME280;6752;52.612;13.630;2022-08-03T21:37:15;100725.26;;;24.57;62.32
13367;BME280;6752;52.612;13.630;2022-08-03T21:42:21;100719.79;;;24.41;63.21
13367;BME280;6752;52.612;13.630;2022-08-03T21:47:23;100735.06;;;24.29;63.59
13367;BME280;6752;52.612;13.630;2022-08-03T21:52:28;100727.22;;;23.90;64.48
13367;BME280;6752;52.612;13.630;2022-08-03T21:57:30;100728.54;;;23.86;64.46
13367;BME280;6752;52.612;13.630;2022-08-03T22:02:36;100728.97;;;24.00;63.60
13367;BME280;6752;52.612;13.630;2022-08-03T22:07:38;100731.28;;;23.68;65.70
13367;BME280;6752;52.612;13.630;2022-08-03T22:12:41;100729.44;;;23.61;66.34
13367;BME280;6752;52.612;13.630;2022-08-03T22:17:43;100733.58;;;23.47;66.68
13367;BME280;6752;52.612;13.630;2022-08-03T22:22:51;100739.92;;;23.08;67.68
13367;BME280;6752;52.612;13.630;2022-08-03T22:27:51;100744.08;;;23.34;65.02
13367;BME280;6752;52.612;13.630;2022-08-03T22:32:56;100742.36;;;23.12;65.75
13367;BME280;6752;52.612;13.630;2022-08-03T22:37:59;100748.62;;;23.04;67.39
13367;BME280;6752;52.612;13.630;2022-08-03T22:43:06;100750.74;;;23.10;66.22
13367;BME280;6752;52.612;13.630;2022-08-03T22:48:08;100750.79;;;23.07;65.74
13367;BME280;6752;52.612;13.630;2022-08-03T22:53:17;100742.47;;;22.98;66.32
13367;BME280;6752;52.612;13.630;2022-08-03T22:58:18;100748.62;;;23.04;66.83
13367;BME280;6752;52.612;13.630;2022-08-03T23:03:24;100742.27;;;22.92;68.39
13367;BME280;6752;52.612;13.630;2022-08-03T23:08:26;100741.83;;;22.85;68.69
13367;BME280;6752;52.612;13.630;2022-08-03T23:13:28;100742.19;;;22.78;68.04
13367;BME280;6752;52.612;13.630;2022-08-03T23:18:34;100746.52;;;22.65;67.80
13367;BME280;6752;52.612;13.630;2022-08-03T23:23:39;100741.61;;;22.60;68.09
13367;BME280;6752;52.612;13.630;2022-08-03T23:28:44;100743.03;;;22.66;67.04
13367;BME280;6752;52.612;13.630;2022-08-03T23:33:46;100745.06;;;22.51;69.31
13367;BME280;6752;52.612;13.630;2022-08-03T23:38:48;100742.41;;;22.41;69.92
13367;BME280;6752;52.612;13.630;2022-08-03T23:43:54;100733.67;;;22.41;67.79
13367;BME280;6752;52.612;13.630;2022-08-03T23:48:59;100734.19;;;22.43;67.53
13367;BME280;6752;52.612;13.630;2022-08-03T23:54:02;100739.00;;;22.38;67.61
13367;BME280;6752;52.612;13.630;2022-08-03T23:59:16;100732.92;;;22.35;68.24
